Time,TemperatureF,DewpointF,PressureIn,WindDirection,WindDirectionDegrees,WindSpeedMPH,WindSpeedGustMPH,Humidity,HourlyPrecipIn,Conditions,Clouds,dailyrainin,SoftwareType,DateUTC
2013-02-14 00:00:00,29.5,28.2,29.83,NW,315,3.0,10.0,95,0.00,,,-99.99,WeatherLink 5.6,2013-02-14 05:00:00,
2013-02-14 00:30:00,29.5,28.0,29.84,NW,315,3.0,10.0,94,0.00,,,-99.99,WeatherLink 5.6,2013-02-14 05:30:00,
2013-02-14 01:00:00,29.3,27.8,29.84,NW,315,2.0,10.0,94,0.00,,,-99.99,WeatherLink 5.6,2013-02-14 06:00:00,
2013-02-14 01:30:00,29.0,27.0,29.85,NW,315,4.0,13.0,92,0.00,,,-99.99,WeatherLink 5.6,2013-02-14 06:30:00,
2013-02-14 02:00:00,28.9,26.1,29.86,WNW,292,4.0,12.0,89,0.00,,,-99.99,WeatherLink 5.6,2013-02-14 07:00:00,
2013-02-14 02:30:00,28.0,24.6,29.88,NW,315,6.0,15.0,87,0.00,,,-99.99,WeatherLink 5.6,2013-02-14 07:30:00,
2013-02-14 03:00:00,27.8,24.2,29.89,West,270,1.0,9.0,86,0.00,,,-99.99,WeatherLink 5.6,2013-02-14 08:00:00,
2013-02-14 03:30:00,28.0,23.8,29.89,WNW,292,3.0,10.0,84,0.00,,,-99.99,WeatherLink 5.6,2013-02-14 08:30:00,
2013-02-14 04:00:00,28.0,23.5,29.89,WNW,292,5.0,12.0,83,0.00,,,-99.99,WeatherLink 5.6,2013-02-14 09:00:00,
2013-02-14 04:30:00,27.8,23.6,29.90,West,270,1.0,10.0,84,0.00,,,-99.99,WeatherLink 5.6,2013-02-14 09:30:00,
2013-02-14 05:00:00,27.5,23.0,29.90,West,270,1.0,9.0,83,0.00,,,-99.99,WeatherLink 5.6,2013-02-14 10:00:00,
2013-02-14 05:30:00,27.2,23.0,29.90,WSW,247,2.0,9.0,84,0.00,,,-99.99,WeatherLink 5.6,2013-02-14 10:30:00,
2013-02-14 06:00:00,26.5,22.6,29.90,WSW,247,0.0,6.0,85,0.00,,,-99.99,WeatherLink 5.6,2013-02-14 11:00:00,
2013-02-14 06:30:00,26.6,22.7,29.91,SW,225,0.0,4.0,85,0.00,,,-99.99,WeatherLink 5.6,2013-02-14 11:30:00,
2013-02-14 07:00:00,26.3,22.4,29.92,South,180,0.0,4.0,85,0.00,,,-99.99,WeatherLink 5.6,2013-02-14 12:00:00,
2013-02-14 07:30:00,26.6,22.7,29.92,South,180,3.0,7.0,85,0.00,,,-99.99,WeatherLink 5.6,2013-02-14 12:30:00,
2013-02-14 08:00:00,27.7,23.5,29.92,South,180,3.0,10.0,84,0.00,,,-99.99,WeatherLink 5.6,2013-02-14 13:00:00,
2013-02-14 08:30:00,28.6,24.7,29.93,South,180,6.0,14.0,85,0.00,,,-99.99,WeatherLink 5.6,2013-02-14 13:30:00,
2013-02-14 09:00:00,29.5,25.5,29.93,South,180,7.0,13.0,85,0.00,,,-99.99,WeatherLink 5.6,2013-02-14 14:00:00,
2013-02-14 09:30:00,31.0,27.0,29.93,South,180,6.0,15.0,85,0.00,,,-99.99,WeatherLink 5.6,2013-02-14 14:30:00,
2013-02-14 10:00:00,31.6,27.0,29.93,South,180,9.0,19.0,83,0.00,,,-99.99,WeatherLink 5.6,2013-02-14 15:00:00,
2013-02-14 10:30:00,32.8,28.2,29.93,South,180,8.0,19.0,83,0.00,,,-99.99,WeatherLink 5.6,2013-02-14 15:30:00,
2013-02-14 11:00:00,34.2,29.0,29.94,South,180,7.0,18.0,81,0.00,,,-99.99,WeatherLink 5.6,2013-02-14 16:00:00,
2013-02-14 11:30:00,34.9,29.4,29.92,South,180,7.0,18.0,80,0.00,,,-99.99,WeatherLink 5.6,2013-02-14 16:30:00,
2013-02-14 12:00:00,34.8,28.6,29.92,South,180,8.0,18.0,78,0.00,,,-99.99,WeatherLink 5.6,2013-02-14 17:00:00,
2013-02-14 12:30:00,36.4,29.2,29.91,South,180,6.0,17.0,75,0.00,,,-99.99,WeatherLink 5.6,2013-02-14 17:30:00,
2013-02-14 13:00:00,37.9,30.0,29.90,South,180,5.0,17.0,73,0.00,,,-99.99,WeatherLink 5.6,2013-02-14 18:00:00,
2013-02-14 13:30:00,38.8,31.6,29.90,SSW,202,5.0,16.0,75,0.00,,,-99.99,WeatherLink 5.6,2013-02-14 18:30:00,
2013-02-14 14:00:00,38.9,30.3,29.88,South,180,6.0,18.0,71,0.00,,,-99.99,WeatherLink 5.6,2013-02-14 19:00:00,
2013-02-14 14:30:00,40.1,31.8,29.86,South,180,7.0,21.0,72,0.00,,,-99.99,WeatherLink 5.6,2013-02-14 19:30:00,
2013-02-14 15:00:00,40.6,31.6,29.86,South,180,6.0,19.0,70,0.00,,,-99.99,WeatherLink 5.6,2013-02-14 20:00:00,
2013-02-14 15:30:00,40.9,32.2,29.87,SSW,202,7.0,17.0,71,0.00,,,-99.99,WeatherLink 5.6,2013-02-14 20:30:00,
2013-02-14 16:00:00,40.6,31.6,29.87,South,180,7.0,18.0,70,0.00,,,-99.99,WeatherLink 5.6,2013-02-14 21:00:00,
2013-02-14 16:30:00,40.1,31.1,29.89,South,180,8.0,19.0,70,0.00,,,-99.99,WeatherLink 5.6,2013-02-14 21:30:00,
2013-02-14 17:00:00,40.4,31.4,29.89,South,180,7.0,17.0,70,0.00,,,-99.99,WeatherLink 5.6,2013-02-14 22:00:00,
2013-02-14 17:30:00,39.8,31.2,29.90,South,180,6.0,17.0,71,0.00,,,-99.99,WeatherLink 5.6,2013-02-14 22:30:00,
2013-02-14 18:00:00,39.3,31.0,29.91,South,180,8.0,19.0,72,0.00,,,-99.99,WeatherLink 5.6,2013-02-14 23:00:00,
2013-02-14 18:30:00,38.7,31.1,29.91,South,180,9.0,20.0,74,0.00,,,-99.99,WeatherLink 5.6,2013-02-14 23:30:00,
2013-02-14 19:00:00,38.2,31.0,29.92,South,180,9.0,17.0,75,0.00,,,-99.99,WeatherLink 5.6,2013-02-15 00:00:00,
2013-02-14 19:30:00,38.0,30.8,29.92,South,180,8.0,16.0,75,0.00,,,-99.99,WeatherLink 5.6,2013-02-15 00:30:00,
2013-02-14 20:00:00,38.5,31.3,29.92,South,180,6.0,15.0,75,0.00,,,-99.99,WeatherLink 5.6,2013-02-15 01:00:00,
2013-02-14 20:30:00,38.6,31.4,29.92,South,180,6.0,17.0,75,0.00,,,-99.99,WeatherLink 5.6,2013-02-15 01:30:00,
2013-02-14 21:00:00,38.6,31.7,29.91,SSW,202,5.0,14.0,76,0.00,,,-99.99,WeatherLink 5.6,2013-02-15 02:00:00,
2013-02-14 21:30:00,38.9,32.0,29.91,SSW,202,5.0,16.0,76,0.00,,,-99.99,WeatherLink 5.6,2013-02-15 02:30:00,
2013-02-14 22:00:00,38.8,32.2,29.91,SSW,202,4.0,13.0,77,0.00,,,-99.99,WeatherLink 5.6,2013-02-15 03:00:00,
2013-02-14 22:30:00,39.0,32.4,29.91,SW,225,3.0,12.0,77,0.00,,,-99.99,WeatherLink 5.6,2013-02-15 03:30:00,
2013-02-14 23:00:00,39.0,32.4,29.91,SW,225,3.0,14.0,77,0.00,,,-99.99,WeatherLink 5.6,2013-02-15 04:00:00,
2013-02-14 23:30:00,39.3,32.7,29.90,SW,225,4.0,14.0,77,0.00,,,-99.99,WeatherLink 5.6,2013-02-15 04:30:00,